createdAt,value
2023-10-15T00:01:08.860Z,1.88
2023-10-15T00:04:13.878Z,1.63
2023-10-15T00:07:18.006Z,1.92
2023-10-15T00:10:24.496Z,1.90
2023-10-15T00:13:28.637Z,1.67
2023-10-15T00:16:33.999Z,1.55
2023-10-15T00:19:41.024Z,1.98
2023-10-15T00:22:46.071Z,2.22
2023-10-15T00:25:50.233Z,1.67
2023-10-15T00:28:56.823Z,1.70
2023-10-15T00:32:01.229Z,1.90
2023-10-15T00:35:05.855Z,1.98
2023-10-15T00:38:12.657Z,3.20
2023-10-15T00:41:17.027Z,2.33
2023-10-15T00:44:22.117Z,2.78
2023-10-15T00:47:26.960Z,2.13
2023-10-15T00:50:39.715Z,2.13
2023-10-15T00:53:59.946Z,2.33
2023-10-15T00:57:23.820Z,2.08
2023-10-15T01:00:46.568Z,2.10
2023-10-15T01:03:56.112Z,2.27
2023-10-15T01:07:01.912Z,2.03
2023-10-15T01:10:09.234Z,1.60
2023-10-15T01:13:22.562Z,1.77
2023-10-15T01:16:29.181Z,1.90
2023-10-15T01:19:35.967Z,2.22
2023-10-15T01:22:40.936Z,1.77
2023-10-15T01:25:50.128Z,2.30
2023-10-15T01:28:54.291Z,1.95
2023-10-15T01:32:04.815Z,2.20
2023-10-15T01:35:11.932Z,2.40
2023-10-15T01:38:23.018Z,1.90
2023-10-15T01:41:27.748Z,1.88
2023-10-15T01:44:32.106Z,2.38
2023-10-15T01:47:37.715Z,1.70
2023-10-15T01:50:45.495Z,2.10
2023-10-15T01:53:51.971Z,2.72
2023-10-15T01:56:56.810Z,2.05
2023-10-15T02:00:13.865Z,2.00
2023-10-15T02:03:18.456Z,2.08
2023-10-15T02:06:22.920Z,2.10
2023-10-15T02:09:30.513Z,2.28
2023-10-15T02:12:35.755Z,2.28
2023-10-15T02:15:41.781Z,1.65
2023-10-15T02:18:46.221Z,2.25
2023-10-15T02:21:53.026Z,1.63
2023-10-15T02:24:57.478Z,1.73
2023-10-15T02:28:01.694Z,1.80
2023-10-15T02:31:05.842Z,1.73
2023-10-15T02:34:15.936Z,1.90
2023-10-15T02:37:30.134Z,2.10
2023-10-15T02:40:38.750Z,1.73
2023-10-15T02:43:47.857Z,2.08
2023-10-15T02:46:58.914Z,2.22
2023-10-15T02:50:04.333Z,1.92
2023-10-15T02:53:08.798Z,2.00
2023-10-15T02:56:12.969Z,1.90
2023-10-15T02:59:18.057Z,2.00
2023-10-15T03:02:22.344Z,1.95
2023-10-15T03:05:31.587Z,1.73
2023-10-15T03:08:48.928Z,2.17
2023-10-15T03:11:53.953Z,1.90
2023-10-15T03:14:58.261Z,2.03
2023-10-15T03:18:03.376Z,1.75
2023-10-15T03:21:11.452Z,2.25
2023-10-15T03:24:17.725Z,2.15
2023-10-15T03:27:27.831Z,2.05
2023-10-15T03:30:34.745Z,2.20
2023-10-15T03:33:38.780Z,2.08
2023-10-15T03:36:52.749Z,2.20
2023-10-15T03:39:57.159Z,2.15
2023-10-15T03:43:16.748Z,1.90
2023-10-15T03:46:21.333Z,1.80
2023-10-15T03:49:28.555Z,1.88
2023-10-15T03:52:35.451Z,2.15
2023-10-15T03:55:39.440Z,1.75
2023-10-15T03:58:43.560Z,2.10
2023-10-15T04:01:51.583Z,2.00
2023-10-15T04:05:02.510Z,2.15
2023-10-15T04:08:18.712Z,1.92
2023-10-15T04:11:30.321Z,1.95
2023-10-15T04:14:35.570Z,1.98
2023-10-15T04:17:39.723Z,1.83
2023-10-15T04:20:44.085Z,1.95
2023-10-15T04:23:53.450Z,1.98
2023-10-15T04:26:57.834Z,2.00
2023-10-15T04:30:02.219Z,1.95
2023-10-15T04:33:11.921Z,1.73
2023-10-15T04:36:16.442Z,2.03
2023-10-15T04:39:46.822Z,1.70
2023-10-15T04:42:50.635Z,2.22
2023-10-15T04:45:56.690Z,1.60
2023-10-15T04:49:00.963Z,1.95
2023-10-15T04:52:14.993Z,2.03
2023-10-15T04:55:19.214Z,2.20
2023-10-15T04:58:28.374Z,2.47
2023-10-15T05:01:34.643Z,2.10
2023-10-15T05:04:38.724Z,2.33
2023-10-15T05:07:44.351Z,2.00
2023-10-15T05:10:52.468Z,2.13
2023-10-15T05:13:56.952Z,1.92
2023-10-15T05:17:01.662Z,2.72
2023-10-15T05:20:09.398Z,2.00
2023-10-15T05:23:14.438Z,2.17
2023-10-15T05:26:21.159Z,2.13
2023-10-15T05:29:25.444Z,2.00
2023-10-15T05:32:29.663Z,1.70
2023-10-15T05:35:35.868Z,2.03
2023-10-15T05:38:39.818Z,2.47
2023-10-15T05:41:44.275Z,3.47
2023-10-15T05:44:48.847Z,1.98
2023-10-15T05:47:52.945Z,2.08
2023-10-15T05:50:56.773Z,2.47
2023-10-15T05:54:01.346Z,2.75
2023-10-15T05:57:07.443Z,1.85
2023-10-15T06:00:27.220Z,2.20
2023-10-15T06:03:31.635Z,2.08
2023-10-15T06:06:38.234Z,1.98
2023-10-15T06:09:45.697Z,2.05
2023-10-15T06:12:49.503Z,2.25
2023-10-15T06:15:53.859Z,2.05
2023-10-15T06:18:58.431Z,1.83
2023-10-15T06:22:02.627Z,2.17
2023-10-15T06:25:09.807Z,2.45
2023-10-15T06:28:15.418Z,2.00
2023-10-15T06:31:19.745Z,2.20
2023-10-15T06:34:24.397Z,2.13
2023-10-15T06:37:28.457Z,2.05
2023-10-15T06:40:33.248Z,2.03
2023-10-15T06:43:38.093Z,2.60
2023-10-15T06:46:42.932Z,2.17
2023-10-15T06:49:47.032Z,2.10
2023-10-15T06:52:51.052Z,1.90
2023-10-15T06:55:55.465Z,2.10
2023-10-15T06:58:59.786Z,2.15
2023-10-15T07:02:04.950Z,1.90
2023-10-15T07:05:09.154Z,5.20
2023-10-15T07:08:13.512Z,2.40
2023-10-15T07:11:17.538Z,2.25
2023-10-15T07:14:22.059Z,2.40
2023-10-15T07:17:26.862Z,2.65
2023-10-15T07:20:31.943Z,2.30
2023-10-15T07:23:36.553Z,2.60
2023-10-15T07:26:41.981Z,2.67
2023-10-15T07:29:46.701Z,2.85
2023-10-15T07:32:54.950Z,2.30
2023-10-15T07:36:02.929Z,2.60
2023-10-15T07:39:07.526Z,2.45
2023-10-15T07:42:11.624Z,2.60
2023-10-15T07:45:17.601Z,2.55
2023-10-15T07:48:21.631Z,2.65
2023-10-15T07:51:29.359Z,2.67
2023-10-15T07:54:35.164Z,2.83
2023-10-15T07:57:39.268Z,2.65
2023-10-15T08:00:43.680Z,2.53
2023-10-15T08:03:48.030Z,2.80
2023-10-15T08:06:53.417Z,3.05
2023-10-15T08:09:58.642Z,2.60
2023-10-15T08:13:05.628Z,2.90
2023-10-15T08:16:09.881Z,3.13
2023-10-15T08:19:14.178Z,2.92
2023-10-15T08:22:18.536Z,2.42
2023-10-15T08:25:26.323Z,2.70
2023-10-15T08:28:30.396Z,2.88
2023-10-15T08:31:34.311Z,2.67
2023-10-15T08:34:38.599Z,2.28
2023-10-15T08:37:46.909Z,2.25
2023-10-15T08:40:51.479Z,1.90
2023-10-15T08:43:55.688Z,2.20
2023-10-15T08:47:02.184Z,2.38
2023-10-15T08:50:08.030Z,2.60
2023-10-15T08:53:14.682Z,2.22
2023-10-15T08:56:22.430Z,2.67
2023-10-15T08:59:28.834Z,2.28
2023-10-15T09:02:33.376Z,2.08
2023-10-15T09:05:38.993Z,2.10
2023-10-15T09:08:43.138Z,2.10
2023-10-15T09:11:47.151Z,2.10
2023-10-15T09:14:51.729Z,1.75
2023-10-15T09:18:01.911Z,2.05
2023-10-15T09:21:06.198Z,2.20
2023-10-15T09:24:10.545Z,1.92
2023-10-15T09:27:15.043Z,2.00
2023-10-15T09:30:23.048Z,1.70
2023-10-15T09:33:31.439Z,2.10
2023-10-15T09:36:36.833Z,2.28
2023-10-15T09:39:41.014Z,1.90
2023-10-15T09:42:55.450Z,2.40
2023-10-15T09:45:59.803Z,2.22
2023-10-15T09:49:05.289Z,2.17
2023-10-15T09:52:11.664Z,2.00
2023-10-15T09:55:15.885Z,2.35
2023-10-15T09:58:20.283Z,1.95
2023-10-15T10:01:29.614Z,2.40
2023-10-15T10:05:17.810Z,2.30
2023-10-15T10:08:42.375Z,2.20
2023-10-15T10:12:08.323Z,2.15
2023-10-15T10:15:26.959Z,2.50
2023-10-15T10:18:34.452Z,2.30
2023-10-15T10:21:39.209Z,1.92
2023-10-15T10:24:43.482Z,1.90
2023-10-15T10:27:48.059Z,1.88
2023-10-15T10:30:56.145Z,2.10
2023-10-15T10:34:04.425Z,2.20
2023-10-15T10:37:22.569Z,1.80
2023-10-15T10:40:49.900Z,1.90
2023-10-15T10:44:09.790Z,1.85
2023-10-15T10:47:23.701Z,2.15
2023-10-15T10:50:45.687Z,1.90
2023-10-15T10:53:58.705Z,1.90
2023-10-15T10:57:08.053Z,1.85
2023-10-15T11:00:13.519Z,1.98
2023-10-15T11:03:19.032Z,1.90
2023-10-15T11:06:23.522Z,1.83
2023-10-15T11:09:27.617Z,1.70
2023-10-15T11:12:32.491Z,1.67
2023-10-15T11:15:37.992Z,1.67
2023-10-15T11:18:42.234Z,2.42
2023-10-15T11:21:47.875Z,1.85
2023-10-15T11:24:51.732Z,1.58
2023-10-15T11:27:55.773Z,1.50
2023-10-15T11:30:59.853Z,1.67
2023-10-15T11:34:05.013Z,1.58
2023-10-15T11:37:10.730Z,1.40
2023-10-15T11:40:14.936Z,1.50
2023-10-15T11:43:19.682Z,1.42
2023-10-15T11:46:24.960Z,1.30
2023-10-15T11:49:31.734Z,1.50
2023-10-15T11:52:41.544Z,1.40
2023-10-15T11:55:49.244Z,1.58
2023-10-15T11:58:55.700Z,1.33
2023-10-15T12:02:02.610Z,1.20
2023-10-15T12:05:10.695Z,1.60
2023-10-15T12:08:17.092Z,1.60
2023-10-15T12:11:21.289Z,1.70
2023-10-15T12:14:25.426Z,1.40
2023-10-15T12:17:29.582Z,1.40
2023-10-15T12:20:34.089Z,1.20
2023-10-15T12:23:37.935Z,1.25
2023-10-15T12:26:42.270Z,1.00
2023-10-15T12:29:46.391Z,1.20
2023-10-15T12:32:59.445Z,1.63
2023-10-15T12:36:04.514Z,1.10
2023-10-15T12:39:08.578Z,0.80
2023-10-15T12:42:12.915Z,0.95
2023-10-15T12:45:17.964Z,1.13
2023-10-15T12:48:22.236Z,0.90
2023-10-15T12:51:26.470Z,1.08
2023-10-15T12:54:30.868Z,0.90
2023-10-15T12:57:37.109Z,1.30
2023-10-15T13:00:44.691Z,1.17
2023-10-15T13:03:50.370Z,1.38
2023-10-15T13:06:54.626Z,1.35
2023-10-15T13:09:59.155Z,1.83
2023-10-15T13:13:03.404Z,1.55
2023-10-15T13:16:09.241Z,1.50
2023-10-15T13:19:14.605Z,1.42
2023-10-15T13:22:19.709Z,1.27
2023-10-15T13:25:23.958Z,1.40
2023-10-15T13:28:28.037Z,1.30
2023-10-15T13:31:32.459Z,1.50
2023-10-15T13:34:37.933Z,1.35
2023-10-15T13:37:44.046Z,1.42
2023-10-15T13:40:48.158Z,1.20
2023-10-15T13:43:52.462Z,1.50
2023-10-15T13:46:56.660Z,1.80
2023-10-15T13:50:00.965Z,1.70
2023-10-15T13:53:05.402Z,1.65
2023-10-15T13:56:09.937Z,1.50
2023-10-15T13:59:14.090Z,1.50
2023-10-15T14:02:19.839Z,1.08
2023-10-15T14:05:25.875Z,1.20
2023-10-15T14:08:31.508Z,1.50
2023-10-15T14:11:38.330Z,1.35
2023-10-15T14:14:42.822Z,1.42
2023-10-15T14:17:47.383Z,1.20
2023-10-15T14:20:54.444Z,1.33
2023-10-15T14:23:58.516Z,1.70
2023-10-15T14:27:02.703Z,1.23
2023-10-15T14:30:11.229Z,1.40
2023-10-15T14:33:15.544Z,1.00
2023-10-15T14:36:19.385Z,1.10
2023-10-15T14:39:24.261Z,1.17
2023-10-15T14:42:28.532Z,1.45
2023-10-15T14:45:35.018Z,1.10
2023-10-15T14:48:39.291Z,0.98
2023-10-15T14:51:43.481Z,0.90
2023-10-15T14:54:48.715Z,0.93
2023-10-15T14:57:52.817Z,0.90
2023-10-15T15:00:56.794Z,1.15
2023-10-15T15:04:01.062Z,1.00
2023-10-15T15:07:05.324Z,1.00
2023-10-15T15:10:09.885Z,1.00
2023-10-15T15:13:14.336Z,0.80
2023-10-15T15:16:18.522Z,1.40
2023-10-15T15:19:22.666Z,0.90
2023-10-15T15:22:27.846Z,1.20
2023-10-15T15:25:32.241Z,0.90
2023-10-15T15:28:39.413Z,1.00
2023-10-15T15:31:44.699Z,0.93
2023-10-15T15:34:50.356Z,1.00
2023-10-15T15:37:54.459Z,1.23
2023-10-15T15:41:05.378Z,1.10
2023-10-15T15:44:09.420Z,1.10
2023-10-15T15:47:16.966Z,0.98
2023-10-15T15:50:21.002Z,1.10
2023-10-15T15:53:26.629Z,1.00
2023-10-15T15:56:31.220Z,1.10
2023-10-15T15:59:35.514Z,1.20
2023-10-15T16:02:39.649Z,1.25
2023-10-15T16:05:43.878Z,1.10
2023-10-15T16:08:47.970Z,1.00
2023-10-15T16:11:52.397Z,0.90
2023-10-15T16:14:56.766Z,1.08
2023-10-15T16:18:02.706Z,1.40
2023-10-15T16:21:06.735Z,2.53
2023-10-15T16:24:12.520Z,1.70
2023-10-15T16:27:20.192Z,1.10
2023-10-15T16:30:24.699Z,1.20
2023-10-15T16:33:28.896Z,1.45
2023-10-15T16:36:33.827Z,1.85
2023-10-15T16:39:40.086Z,1.50
2023-10-15T16:42:45.307Z,2.10
2023-10-15T16:48:55.368Z,1.50
2023-10-15T16:51:59.743Z,1.63
2023-10-15T16:55:04.430Z,1.60
2023-10-15T16:58:08.679Z,1.40
2023-10-15T17:01:13.017Z,1.40
2023-10-15T17:04:17.186Z,1.58
2023-10-15T17:07:23.236Z,1.63
2023-10-15T17:10:27.370Z,2.50
2023-10-15T17:13:31.855Z,1.90
2023-10-15T17:16:36.042Z,1.48
2023-10-15T17:19:40.535Z,1.38
2023-10-15T17:22:44.898Z,1.60
2023-10-15T17:25:52.151Z,1.60
2023-10-15T17:28:56.347Z,1.33
2023-10-15T17:32:02.754Z,1.42
2023-10-15T17:35:06.910Z,1.40
2023-10-15T17:38:11.588Z,1.65
2023-10-15T17:41:15.839Z,2.35
2023-10-15T17:44:20.088Z,1.50
2023-10-15T17:47:24.061Z,1.50
2023-10-15T17:50:29.840Z,1.42
2023-10-15T17:53:34.106Z,1.10
2023-10-15T17:56:38.442Z,1.40
2023-10-15T17:59:42.692Z,1.40
2023-10-15T18:02:47.293Z,0.98
2023-10-15T18:05:51.716Z,1.27
2023-10-15T18:08:55.893Z,1.20
2023-10-15T18:11:59.804Z,1.35
2023-10-15T18:15:07.355Z,1.05
2023-10-15T18:18:11.076Z,1.40
2023-10-15T18:21:16.068Z,1.05
2023-10-15T18:24:21.058Z,1.27
2023-10-15T18:27:25.273Z,1.30
2023-10-15T18:30:29.633Z,2.38
2023-10-15T18:33:34.261Z,1.45
2023-10-15T18:36:38.298Z,1.25
2023-10-15T18:39:42.336Z,1.10
2023-10-15T18:42:48.140Z,1.08
2023-10-15T18:45:52.595Z,1.75
2023-10-15T18:48:57.962Z,1.20
2023-10-15T18:52:03.759Z,1.02
2023-10-15T18:55:10.662Z,1.27
2023-10-15T18:58:15.540Z,1.20
2023-10-15T19:01:22.845Z,1.33
2023-10-15T19:04:27.826Z,1.58
2023-10-15T19:07:32.148Z,1.70
2023-10-15T19:10:36.067Z,1.90
2023-10-15T19:13:41.878Z,1.30
2023-10-15T19:16:46.768Z,1.00
2023-10-15T19:19:55.577Z,1.30
2023-10-15T19:22:59.757Z,1.10
2023-10-15T19:26:08.410Z,1.45
2023-10-15T19:29:14.053Z,1.10
2023-10-15T19:32:19.799Z,1.40
2023-10-15T19:35:24.724Z,1.30
2023-10-15T19:38:31.052Z,1.30
2023-10-15T19:41:35.639Z,1.48
2023-10-15T19:44:40.173Z,1.40
2023-10-15T19:47:44.197Z,1.10
2023-10-15T19:50:48.305Z,1.30
2023-10-15T19:53:52.432Z,1.15
2023-10-15T19:56:58.049Z,1.08
2023-10-15T20:00:06.587Z,1.30
2023-10-15T20:03:13.131Z,1.20
2023-10-15T20:06:17.553Z,1.33
2023-10-15T20:09:22.733Z,1.10
2023-10-15T20:12:27.137Z,1.58
2023-10-15T20:15:32.254Z,1.13
2023-10-15T20:18:37.107Z,1.17
2023-10-15T20:21:42.364Z,1.10
2023-10-15T20:24:47.332Z,1.02
2023-10-15T20:27:51.720Z,1.30
2023-10-15T20:30:57.772Z,1.20
2023-10-15T20:34:04.901Z,0.95
2023-10-15T20:37:11.262Z,1.10
2023-10-15T20:40:15.648Z,1.00
2023-10-15T20:43:20.267Z,1.08
2023-10-15T20:46:24.595Z,1.17
2023-10-15T20:49:29.125Z,1.30
2023-10-15T20:52:33.507Z,1.20
2023-10-15T20:55:37.816Z,1.48
2023-10-15T20:58:52.746Z,1.20
2023-10-15T21:01:58.576Z,1.10
2023-10-15T21:05:03.098Z,0.93
2023-10-15T21:08:07.272Z,1.35
2023-10-15T21:11:12.252Z,1.23
2023-10-15T21:14:16.289Z,1.30
2023-10-15T21:17:20.543Z,1.45
2023-10-15T21:20:24.998Z,1.50
2023-10-15T21:23:29.137Z,1.35
2023-10-15T21:26:32.890Z,1.58
2023-10-15T21:29:37.119Z,1.45
2023-10-15T21:32:41.636Z,1.38
2023-10-15T21:35:45.848Z,1.50
2023-10-15T21:38:50.260Z,1.48
2023-10-15T21:41:54.601Z,1.20
2023-10-15T21:44:58.658Z,1.45
2023-10-15T21:48:04.354Z,1.27
2023-10-15T21:51:09.351Z,1.65
2023-10-15T21:54:13.991Z,1.55
2023-10-15T21:57:17.888Z,1.40
2023-10-15T22:00:37.352Z,1.50
2023-10-15T22:03:41.639Z,1.30
2023-10-15T22:06:47.716Z,1.20
2023-10-15T22:09:51.892Z,1.67
2023-10-15T22:13:00.429Z,1.40
2023-10-15T22:16:06.741Z,1.40
2023-10-15T22:19:14.488Z,1.17
2023-10-15T22:22:18.856Z,1.20
2023-10-15T22:25:25.670Z,1.48
2023-10-15T22:28:30.336Z,1.60
2023-10-15T22:31:34.894Z,1.42
2023-10-15T22:34:39.366Z,1.20
2023-10-15T22:37:45.608Z,1.40
2023-10-15T22:40:52.864Z,1.40
2023-10-15T22:43:56.662Z,1.15
2023-10-15T22:47:01.007Z,1.27
2023-10-15T22:50:26.375Z,1.40
2023-10-15T22:53:30.661Z,1.20
2023-10-15T22:56:37.737Z,1.17
2023-10-15T22:59:41.635Z,1.23
2023-10-15T23:02:45.791Z,1.13
2023-10-15T23:05:52.777Z,1.30
2023-10-15T23:08:57.527Z,1.25
2023-10-15T23:12:01.856Z,1.33
2023-10-15T23:15:16.623Z,1.27
2023-10-15T23:18:21.771Z,1.25
2023-10-15T23:21:39.413Z,1.20
2023-10-15T23:24:43.770Z,1.45
2023-10-15T23:27:51.208Z,1.67
2023-10-15T23:30:58.525Z,1.38
2023-10-15T23:34:04.634Z,1.30
2023-10-15T23:37:08.860Z,1.27
2023-10-15T23:40:16.118Z,1.58
2023-10-15T23:43:22.426Z,1.33
2023-10-15T23:46:26.897Z,1.10
2023-10-15T23:49:35.931Z,1.30
2023-10-15T23:52:39.963Z,1.02
2023-10-15T23:55:47.828Z,1.30
2023-10-15T23:58:57.275Z,1.10
